Terminal Aerodrome Forecast
Issued by NWS

Home | Current Version | Previous Version | Text Only | Print | Product List | Glossary On
Versions: 1 2 3 4 5 6 7 8 9 10 11 12
170
FTUS42 KTAE 301120
TAFVLD
TAF
KVLD 301120Z 3012/3112 00000KT P6SM OVC080
     FM301400 33003KT P6SM FEW040
     FM302000 34005KT P6SM VCSH SCT060
     FM310000 00000KT P6SM SCT250=

USA.gov is the U.S. government's official web portal to all federal, state and local government web resources and services.